createdAt,value
2022-09-10T00:01:19.848Z,99472.69
2022-09-10T00:03:49.994Z,99472.06
2022-09-10T00:06:18.890Z,99472.41
2022-09-10T00:08:47.544Z,99466.06
2022-09-10T00:11:15.577Z,99472.06
2022-09-10T00:13:43.161Z,99472.41
2022-09-10T00:16:13.431Z,99476.78
2022-09-10T00:18:43.350Z,99474.03
2022-09-10T00:21:13.130Z,99466.91
2022-09-10T00:23:40.782Z,99456.47
2022-09-10T00:26:17.198Z,99452.09
2022-09-10T00:28:45.472Z,99454.63
2022-09-10T00:31:13.403Z,99457.94
2022-09-10T00:33:41.940Z,99450.47
2022-09-10T00:36:19.416Z,99445.91
2022-09-10T00:38:46.915Z,99437.19
2022-09-10T00:41:15.776Z,99435.91
2022-09-10T00:44:35.713Z,99443.81
2022-09-10T00:47:09.338Z,99449.25
2022-09-10T00:49:40.272Z,99443.50
2022-09-10T00:52:08.006Z,99448.09
2022-09-10T00:54:36.857Z,99441.56
2022-09-10T00:57:08.468Z,99445.47
2022-09-10T00:59:36.560Z,99434.63
2022-09-10T01:02:04.090Z,99439.66
2022-09-10T01:04:32.463Z,99439.44
2022-09-10T01:07:01.288Z,99438.94
2022-09-10T01:09:28.819Z,99426.97
2022-09-10T01:12:15.177Z,99430.69
2022-09-10T01:15:03.087Z,99435.81
2022-09-10T01:17:41.901Z,99435.22
2022-09-10T01:20:36.091Z,99423.09
2022-09-10T01:23:31.357Z,99423.91
2022-09-10T01:26:25.619Z,99421.66
2022-09-10T01:29:02.556Z,99423.28
2022-09-10T01:31:45.883Z,99407.69
2022-09-10T01:34:24.694Z,99400.22
2022-09-10T01:36:54.724Z,99394.03
2022-09-10T01:39:23.998Z,99394.53
2022-09-10T01:41:54.437Z,99387.91
2022-09-10T01:44:44.998Z,99388.56
2022-09-10T01:47:32.223Z,99381.38
2022-09-10T01:50:12.941Z,99367.66
2022-09-10T01:53:02.104Z,99381.56
2022-09-10T01:55:34.154Z,99397.97
2022-09-10T01:58:11.931Z,99387.75
2022-09-10T02:00:46.977Z,99369.00
2022-09-10T02:03:18.061Z,99364.22
2022-09-10T02:05:49.127Z,99351.38
2022-09-10T02:08:37.815Z,99354.16
2022-09-10T02:11:06.982Z,99361.16
2022-09-10T02:13:35.849Z,99365.66
2022-09-10T02:16:06.925Z,99362.56
2022-09-10T02:18:37.319Z,99369.06
2022-09-10T02:21:04.858Z,99367.91
2022-09-10T02:23:41.448Z,99373.00
2022-09-10T02:26:09.485Z,99369.19
2022-09-10T02:28:37.770Z,99370.56
2022-09-10T02:31:05.220Z,99360.16
2022-09-10T02:33:32.556Z,99357.00
2022-09-10T02:36:02.023Z,99357.78
2022-09-10T02:38:30.144Z,99355.38
2022-09-10T02:40:59.223Z,99355.72
2022-09-10T02:43:27.452Z,99356.81
2022-09-10T02:45:58.557Z,99350.09
2022-09-10T02:48:27.474Z,99353.72
2022-09-10T02:50:57.362Z,99356.31
2022-09-10T02:53:26.426Z,99349.97
2022-09-10T02:55:54.403Z,99350.06
2022-09-10T02:58:21.996Z,99354.16
2022-09-10T03:00:50.240Z,99357.22
2022-09-10T03:03:17.968Z,99366.84
2022-09-10T03:05:45.571Z,99359.31
2022-09-10T03:08:14.314Z,99362.44
2022-09-10T03:10:43.049Z,99361.41
2022-09-10T03:13:10.626Z,99351.16
2022-09-10T03:15:38.248Z,99354.84
2022-09-10T03:18:06.745Z,99352.69
2022-09-10T03:20:36.527Z,99353.53
2022-09-10T03:23:03.867Z,99365.41
2022-09-10T03:25:31.207Z,99348.47
2022-09-10T03:27:59.773Z,99347.09
2022-09-10T03:30:27.601Z,99358.31
2022-09-10T03:32:55.512Z,99350.31
2022-09-10T03:35:23.219Z,99353.22
2022-09-10T03:37:50.726Z,99353.31
2022-09-10T03:40:18.126Z,99344.91
2022-09-10T03:42:46.222Z,99346.16
2022-09-10T03:45:13.817Z,99346.09
2022-09-10T03:47:41.247Z,99350.31
2022-09-10T03:50:09.109Z,99340.47
2022-09-10T03:52:36.533Z,99358.34
2022-09-10T03:55:04.104Z,99347.66
2022-09-10T03:57:31.723Z,99347.63
2022-09-10T03:59:59.228Z,99348.53
2022-09-10T04:02:26.607Z,99351.28
2022-09-10T04:04:54.540Z,99346.44
2022-09-10T04:07:21.845Z,99348.72
2022-09-10T04:09:49.964Z,99354.47
2022-09-10T04:12:17.828Z,99345.72
2022-09-10T04:14:46.623Z,99344.97
2022-09-10T04:17:14.139Z,99354.66
2022-09-10T04:19:42.320Z,99356.00
2022-09-10T04:22:09.736Z,99356.94
2022-09-10T04:24:37.976Z,99363.06
2022-09-10T04:27:06.389Z,99370.25
2022-09-10T04:29:33.788Z,99371.78
2022-09-10T04:32:01.455Z,99377.84
2022-09-10T04:34:29.415Z,99373.50
2022-09-10T04:36:56.790Z,99378.06
2022-09-10T04:39:24.342Z,99372.34
2022-09-10T04:41:51.927Z,99368.00
2022-09-10T04:44:20.103Z,99363.50
2022-09-10T04:46:47.876Z,99363.09
2022-09-10T04:49:15.505Z,99369.88
2022-09-10T04:51:43.220Z,99364.75
2022-09-10T04:54:13.548Z,99362.78
2022-09-10T04:56:41.539Z,99357.22
2022-09-10T04:59:10.812Z,99358.84
2022-09-10T05:01:38.237Z,99360.37
2022-09-10T05:04:06.113Z,99364.84
2022-09-10T05:06:33.753Z,99361.47
2022-09-10T05:09:01.358Z,99366.47
2022-09-10T05:11:29.411Z,99366.03
2022-09-10T05:13:56.743Z,99360.72
2022-09-10T05:16:24.762Z,99364.72
2022-09-10T05:18:53.263Z,99366.84
2022-09-10T05:21:20.706Z,99371.03
2022-09-10T05:23:48.089Z,99366.22
2022-09-10T05:26:15.685Z,99376.28
2022-09-10T05:28:43.079Z,99382.81
2022-09-10T05:31:11.295Z,99388.78
2022-09-10T05:33:40.723Z,99376.16
2022-09-10T05:36:11.660Z,99365.72
2022-09-10T05:38:40.216Z,99374.91
2022-09-10T05:41:11.517Z,99382.91
2022-09-10T05:43:41.933Z,99382.44
2022-09-10T05:46:10.412Z,99391.22
2022-09-10T05:48:41.602Z,99397.81
2022-09-10T05:51:09.836Z,99386.00
2022-09-10T05:53:38.285Z,99390.75
2022-09-10T05:56:07.346Z,99383.91
2022-09-10T05:58:35.243Z,99384.47
2022-09-10T06:01:02.671Z,99383.00
2022-09-10T06:03:31.448Z,99386.94
2022-09-10T06:05:59.013Z,99384.81
2022-09-10T06:08:27.913Z,99388.53
2022-09-10T06:11:05.117Z,99383.34
2022-09-10T06:13:35.239Z,99379.59
2022-09-10T06:16:05.010Z,99381.91
2022-09-10T06:18:33.733Z,99380.34
2022-09-10T06:21:06.813Z,99389.88
2022-09-10T06:23:36.192Z,99378.94
2022-09-10T06:26:09.554Z,99382.41
2022-09-10T06:28:37.463Z,99379.66
2022-09-10T06:31:06.110Z,99380.59
2022-09-10T06:33:34.604Z,99377.19
2022-09-10T06:36:03.338Z,99380.47
2022-09-10T06:38:33.150Z,99385.19
2022-09-10T06:41:04.783Z,99388.75
2022-09-10T06:43:36.253Z,99380.59
2022-09-10T06:49:11.331Z,99382.44
2022-09-10T06:51:39.808Z,99384.37
2022-09-10T06:54:08.571Z,99392.59
2022-09-10T06:56:36.232Z,99396.72
2022-09-10T06:59:04.247Z,99396.31
2022-09-10T07:01:31.758Z,99401.97
2022-09-10T07:04:01.017Z,99402.28
2022-09-10T07:06:35.117Z,99402.66
2022-09-10T07:09:04.497Z,99408.41
2022-09-10T07:11:32.756Z,99410.38
2022-09-10T07:14:01.501Z,99421.19
2022-09-10T07:16:29.635Z,99423.38
2022-09-10T07:18:59.382Z,99433.50
2022-09-10T07:21:28.497Z,99431.03
2022-09-10T07:23:58.495Z,99430.31
2022-09-10T07:26:26.221Z,99427.59
2022-09-10T07:28:53.998Z,99430.53
2022-09-10T07:31:28.125Z,99433.00
2022-09-10T07:34:00.623Z,99431.72
2022-09-10T07:36:28.620Z,99432.34
2022-09-10T07:39:01.829Z,99434.19
2022-09-10T07:41:31.901Z,99435.81
2022-09-10T07:43:59.957Z,99439.94
2022-09-10T07:46:28.449Z,99446.44
2022-09-10T07:48:58.629Z,99449.25
2022-09-10T07:51:28.360Z,99448.50
2022-09-10T07:53:58.644Z,99447.84
2022-09-10T07:56:27.866Z,99451.28
2022-09-10T07:58:57.550Z,99450.13
2022-09-10T08:01:27.221Z,99455.03
2022-09-10T08:03:58.714Z,99457.75
2022-09-10T08:06:26.380Z,99453.41
2022-09-10T08:08:54.029Z,99450.41
2022-09-10T08:11:21.984Z,99453.16
2022-09-10T08:13:51.603Z,99460.16
2022-09-10T08:16:23.028Z,99460.34
2022-09-10T08:18:51.548Z,99461.88
2022-09-10T08:21:19.751Z,99463.38
2022-09-10T08:23:51.696Z,99463.22
2022-09-10T08:26:23.646Z,99462.59
2022-09-10T08:28:52.675Z,99459.16
2022-09-10T08:31:20.350Z,99459.22
2022-09-10T08:33:50.476Z,99454.59
2022-09-10T08:36:18.704Z,99458.53
2022-09-10T08:38:46.473Z,99457.25
2022-09-10T08:41:41.176Z,99470.50
2022-09-10T08:44:08.955Z,99465.41
2022-09-10T08:46:45.250Z,99462.91
2022-09-10T08:49:36.834Z,99464.47
2022-09-10T08:52:32.025Z,99465.91
2022-09-10T08:55:02.081Z,99472.59
2022-09-10T08:57:37.000Z,99459.06
2022-09-10T09:00:06.554Z,99461.59
2022-09-10T09:03:16.178Z,99465.50
2022-09-10T09:05:51.352Z,99473.44
2022-09-10T09:08:33.994Z,99473.88
2022-09-10T09:11:20.441Z,99471.47
2022-09-10T09:14:33.513Z,99473.38
2022-09-10T09:17:27.402Z,99472.50
2022-09-10T09:20:12.165Z,99476.47
2022-09-10T09:22:47.712Z,99473.22
2022-09-10T09:25:35.214Z,99477.94
2022-09-10T09:28:03.617Z,99474.19
2022-09-10T09:30:39.121Z,99476.28
2022-09-10T09:33:16.360Z,99470.09
2022-09-10T09:36:04.192Z,99471.97
2022-09-10T09:38:39.012Z,99464.84
2022-09-10T09:41:26.746Z,99465.16
2022-09-10T09:44:07.877Z,99471.59
2022-09-10T09:46:35.222Z,99467.50
2022-09-10T09:49:03.978Z,99459.50
2022-09-10T09:51:35.873Z,99449.28
2022-09-10T09:56:59.079Z,99458.66
2022-09-10T09:59:30.560Z,99454.59
2022-09-10T10:02:09.634Z,99446.78
2022-09-10T10:04:41.979Z,99449.25
2022-09-10T10:07:11.876Z,99444.31
2022-09-10T10:09:43.284Z,99439.97
2022-09-10T10:12:19.804Z,99442.75
2022-09-10T10:14:47.752Z,99439.28
2022-09-10T10:17:51.296Z,99439.88
2022-09-10T10:20:18.913Z,99443.91
2022-09-10T10:22:48.679Z,99431.09
2022-09-10T10:25:36.533Z,99428.66
2022-09-10T10:28:14.321Z,99432.34
2022-09-10T10:30:41.737Z,99425.44
2022-09-10T10:33:19.254Z,99430.47
2022-09-10T10:36:07.507Z,99424.78
2022-09-10T10:38:37.750Z,99424.97
2022-09-10T10:41:11.559Z,99413.59
2022-09-10T10:44:04.355Z,99420.19
2022-09-10T10:46:44.662Z,99425.25
2022-09-10T10:49:33.339Z,99418.62
2022-09-10T10:52:03.961Z,99426.53
2022-09-10T10:54:47.781Z,99422.72
2022-09-10T10:57:20.686Z,99420.75
2022-09-10T11:00:14.098Z,99415.09
2022-09-10T11:02:54.538Z,99419.03
2022-09-10T11:05:35.179Z,99413.97
2022-09-10T11:08:06.851Z,99416.47
2022-09-10T11:10:39.543Z,99418.75
2022-09-10T11:13:21.937Z,99428.97
2022-09-10T11:16:01.373Z,99429.78
2022-09-10T11:18:37.161Z,99436.06
2022-09-10T11:21:18.209Z,99434.53
2022-09-10T11:24:06.005Z,99425.16
2022-09-10T11:26:43.371Z,99429.09
2022-09-10T11:29:35.537Z,99429.09
2022-09-10T11:32:23.595Z,99431.88
2022-09-10T11:34:59.824Z,99425.16
2022-09-10T11:37:54.069Z,99429.09
2022-09-10T11:40:41.314Z,99423.09
2022-09-10T11:43:33.903Z,99423.88
2022-09-10T11:46:04.675Z,99414.66
2022-09-10T11:49:01.800Z,99419.63
2022-09-10T11:51:34.306Z,99407.34
2022-09-10T11:54:04.481Z,99411.50
2022-09-10T11:56:40.724Z,99406.87
2022-09-10T11:59:14.592Z,99398.69
2022-09-10T12:02:02.579Z,99410.09
2022-09-10T12:05:07.899Z,99408.72
2022-09-10T12:07:54.756Z,99412.16
2022-09-10T12:10:40.744Z,99415.00
2022-09-10T12:13:17.374Z,99422.34
2022-09-10T12:15:57.837Z,99412.75
2022-09-10T12:18:29.102Z,99413.66
2022-09-10T12:21:05.780Z,99405.63
2022-09-10T12:23:35.527Z,99403.88
2022-09-10T12:26:09.969Z,99409.28
2022-09-10T12:28:43.017Z,99405.97
2022-09-10T12:31:16.181Z,99408.81
2022-09-10T12:33:46.479Z,99403.28
2022-09-10T12:36:26.283Z,99406.75
2022-09-10T12:39:16.442Z,99401.13
2022-09-10T12:41:43.878Z,99405.22
2022-09-10T12:44:36.114Z,99411.16
2022-09-10T12:47:18.631Z,99394.81
2022-09-10T12:49:55.800Z,99396.56
2022-09-10T12:52:26.516Z,99392.31
2022-09-10T12:55:14.968Z,99389.56
2022-09-10T12:57:54.445Z,99390.16
2022-09-10T13:00:23.228Z,99386.31
2022-09-10T13:03:09.103Z,99396.19
2022-09-10T13:05:51.348Z,99393.22
2022-09-10T13:08:25.783Z,99391.53
2022-09-10T13:11:01.916Z,99391.53
2022-09-10T13:13:34.596Z,99397.72
2022-09-10T13:16:02.931Z,99390.34
2022-09-10T13:18:33.975Z,99383.75
2022-09-10T13:21:27.483Z,99384.63
2022-09-10T13:23:57.165Z,99378.31
2022-09-10T13:26:38.347Z,99390.34
2022-09-10T13:29:11.423Z,99387.66
2022-09-10T13:31:45.366Z,99373.00
2022-09-10T13:34:15.842Z,99373.25
2022-09-10T13:37:10.006Z,99378.19
2022-09-10T13:40:08.668Z,99384.19
2022-09-10T13:43:15.410Z,99372.47
2022-09-10T13:45:49.710Z,99373.69
2022-09-10T13:48:29.079Z,99369.84
2022-09-10T13:51:13.678Z,99371.72
2022-09-10T13:53:44.185Z,99372.97
2022-09-10T13:56:33.400Z,99369.69
2022-09-10T13:59:02.263Z,99371.03
2022-09-10T14:01:49.720Z,99374.00
2022-09-10T14:04:32.071Z,99361.34
2022-09-10T14:07:25.580Z,99371.28
2022-09-10T14:10:00.625Z,99367.66
2022-09-10T14:12:29.698Z,99376.94
2022-09-10T14:14:59.960Z,99365.03
2022-09-10T14:17:50.716Z,99365.16
2022-09-10T14:20:28.401Z,99361.84
2022-09-10T14:23:05.435Z,99348.38
2022-09-10T14:25:38.662Z,99355.06
2022-09-10T14:28:19.639Z,99354.97
2022-09-10T14:30:48.891Z,99355.66
2022-09-10T14:33:28.302Z,99349.78
2022-09-10T14:35:58.173Z,99350.75
2022-09-10T14:38:30.990Z,99351.34
2022-09-10T14:41:08.510Z,99351.91
2022-09-10T14:43:39.018Z,99355.75
2022-09-10T14:46:08.306Z,99347.97
2022-09-10T14:48:38.722Z,99347.59
2022-09-10T14:51:12.809Z,99357.12
2022-09-10T14:53:42.021Z,99344.44
2022-09-10T14:56:24.650Z,99354.25
2022-09-10T14:58:57.538Z,99343.66
2022-09-10T15:01:25.427Z,99351.28
2022-09-10T15:03:53.370Z,99348.62
2022-09-10T15:06:26.040Z,99348.41
2022-09-10T15:08:56.207Z,99354.06
2022-09-10T15:11:25.895Z,99362.50
2022-09-10T15:13:56.078Z,99352.13
2022-09-10T15:16:23.793Z,99353.44
2022-09-10T15:18:51.131Z,99352.91
2022-09-10T15:21:18.914Z,99355.59
2022-09-10T15:23:48.240Z,99358.09
2022-09-10T15:26:15.692Z,99365.03
2022-09-10T15:28:43.041Z,99369.28
2022-09-10T15:31:10.988Z,99378.84
2022-09-10T15:33:38.427Z,99374.94
2022-09-10T15:36:06.295Z,99379.25
2022-09-10T15:38:33.998Z,99375.44
2022-09-10T15:41:12.921Z,99378.28
2022-09-10T15:43:43.069Z,99382.81
2022-09-10T15:46:12.226Z,99391.50
2022-09-10T15:48:40.062Z,99391.56
2022-09-10T15:51:13.791Z,99391.03
2022-09-10T15:53:42.311Z,99396.38
2022-09-10T15:56:11.154Z,99399.94
2022-09-10T15:58:39.136Z,99409.16
2022-09-10T16:01:15.146Z,99406.16
2022-09-10T16:03:50.166Z,99411.81
2022-09-10T16:06:20.667Z,99414.34
2022-09-10T16:08:50.054Z,99421.72
2022-09-10T16:11:18.212Z,99416.66
2022-09-10T16:13:46.163Z,99419.19
2022-09-10T16:16:19.363Z,99418.06
2022-09-10T16:18:53.109Z,99421.69
2022-09-10T16:21:26.229Z,99425.41
2022-09-10T16:23:55.708Z,99424.50
2022-09-10T16:26:26.124Z,99426.59
2022-09-10T16:28:56.265Z,99429.91
2022-09-10T16:31:27.644Z,99430.37
2022-09-10T16:33:58.670Z,99426.59
2022-09-10T16:36:26.715Z,99424.16
2022-09-10T16:38:57.912Z,99428.72
2022-09-10T16:41:25.836Z,99430.06
2022-09-10T16:43:53.774Z,99427.88
2022-09-10T16:46:21.455Z,99435.84
2022-09-10T16:48:51.771Z,99429.00
2022-09-10T16:51:20.773Z,99428.44
2022-09-10T16:53:55.807Z,99434.34
2022-09-10T16:56:24.691Z,99426.09
2022-09-10T16:58:52.145Z,99428.25
2022-09-10T17:01:20.799Z,99426.59
2022-09-10T17:03:52.401Z,99429.13
2022-09-10T17:06:21.880Z,99431.72
2022-09-10T17:08:50.160Z,99434.38
2022-09-10T17:11:19.098Z,99436.91
2022-09-10T17:13:46.805Z,99444.28
2022-09-10T17:16:16.896Z,99441.91
2022-09-10T17:18:44.923Z,99448.75
2022-09-10T17:21:13.296Z,99458.25
2022-09-10T17:23:41.565Z,99456.03
2022-09-10T17:26:09.400Z,99451.25
2022-09-10T17:28:37.242Z,99457.56
2022-09-10T17:31:05.152Z,99466.03
2022-09-10T17:33:33.506Z,99463.03
2022-09-10T17:36:03.437Z,99461.47
2022-09-10T17:38:33.258Z,99460.97
2022-09-10T17:41:03.027Z,99457.94
2022-09-10T17:43:34.991Z,99468.28
2022-09-10T17:46:04.178Z,99472.38
2022-09-10T17:48:32.646Z,99476.72
2022-09-10T17:51:00.165Z,99479.38
2022-09-10T17:53:28.108Z,99487.44
2022-09-10T17:56:01.700Z,99492.19
2022-09-10T17:58:29.190Z,99501.91
2022-09-10T18:00:59.968Z,99507.41
2022-09-10T18:03:28.357Z,99508.03
2022-09-10T18:05:57.011Z,99503.44
2022-09-10T18:08:24.312Z,99509.91
2022-09-10T18:11:00.998Z,99519.19
2022-09-10T18:13:29.495Z,99520.37
2022-09-10T18:15:57.142Z,99518.09
2022-09-10T18:18:24.646Z,99512.09
2022-09-10T18:20:52.030Z,99511.56
2022-09-10T18:23:19.745Z,99515.72
2022-09-10T18:25:49.926Z,99524.50
2022-09-10T18:28:17.735Z,99522.69
2022-09-10T18:30:45.939Z,99524.59
2022-09-10T18:33:14.877Z,99528.37
2022-09-10T18:35:43.023Z,99534.22
2022-09-10T18:38:10.757Z,99530.16
2022-09-10T18:40:41.885Z,99541.53
2022-09-10T18:43:12.419Z,99536.19
2022-09-10T18:45:41.465Z,99536.44
2022-09-10T18:48:09.692Z,99538.84
2022-09-10T18:50:40.854Z,99537.22
2022-09-10T18:53:09.585Z,99540.66
2022-09-10T18:55:38.976Z,99526.88
2022-09-10T18:58:07.716Z,99532.75
2022-09-10T19:00:35.617Z,99524.31
2022-09-10T19:03:03.561Z,99525.06
2022-09-10T19:05:32.372Z,99528.97
2022-09-10T19:08:00.047Z,99525.94
2022-09-10T19:10:32.132Z,99523.66
2022-09-10T19:13:01.013Z,99513.28
2022-09-10T19:15:33.301Z,99519.94
2022-09-10T19:18:06.177Z,99514.09
2022-09-10T19:20:37.347Z,99511.34
2022-09-10T19:23:05.743Z,99517.34
2022-09-10T19:25:33.500Z,99518.59
2022-09-10T19:28:01.469Z,99524.16
2022-09-10T19:30:35.624Z,99522.06
2022-09-10T19:33:04.498Z,99529.19
2022-09-10T19:35:35.838Z,99530.94
2022-09-10T19:38:15.762Z,99530.75
2022-09-10T19:40:51.014Z,99534.56
2022-09-10T19:43:18.327Z,99539.84
2022-09-10T19:45:46.654Z,99534.63
2022-09-10T19:48:14.540Z,99540.06
2022-09-10T19:50:42.110Z,99538.72
2022-09-10T19:53:09.606Z,99532.31
2022-09-10T19:55:37.717Z,99535.44
2022-09-10T19:58:06.014Z,99537.38
2022-09-10T20:00:46.458Z,99541.81
2022-09-10T20:03:15.496Z,99534.75
2022-09-10T20:05:43.067Z,99525.94
2022-09-10T20:08:10.482Z,99530.75
2022-09-10T20:10:38.165Z,99526.72
2022-09-10T20:13:05.853Z,99529.00
2022-09-10T20:15:33.382Z,99530.00
2022-09-10T20:18:01.204Z,99525.69
2022-09-10T20:20:29.009Z,99527.56
2022-09-10T20:22:58.251Z,99528.50
2022-09-10T20:25:26.648Z,99528.78
2022-09-10T20:27:55.035Z,99532.75
2022-09-10T20:30:22.341Z,99530.41
2022-09-10T20:32:50.411Z,99538.38
2022-09-10T20:35:17.732Z,99541.06
2022-09-10T20:37:48.823Z,99547.62
2022-09-10T20:40:18.859Z,99551.91
2022-09-10T20:42:46.278Z,99547.88
2022-09-10T20:45:13.617Z,99555.75
2022-09-10T20:47:43.096Z,99549.47
2022-09-10T20:50:12.828Z,99545.75
2022-09-10T20:52:42.343Z,99541.41
2022-09-10T20:55:10.409Z,99547.09
2022-09-10T20:57:37.743Z,99544.88
2022-09-10T21:00:09.413Z,99549.41
2022-09-10T21:02:37.064Z,99554.06
2022-09-10T21:05:05.577Z,99539.78
2022-09-10T21:07:34.493Z,99536.25
2022-09-10T21:10:02.079Z,99545.88
2022-09-10T21:12:30.003Z,99526.69
2022-09-10T21:14:57.892Z,99523.25
2022-09-10T21:17:25.528Z,99535.22
2022-09-10T21:19:53.730Z,99536.94
2022-09-10T21:22:21.145Z,99538.31
2022-09-10T21:24:48.789Z,99532.16
2022-09-10T21:27:16.208Z,99530.06
2022-09-10T21:29:43.672Z,99521.41
2022-09-10T21:32:11.262Z,99534.81
2022-09-10T21:34:39.829Z,99523.63
2022-09-10T21:37:07.130Z,99538.66
2022-09-10T21:39:34.866Z,99547.06
2022-09-10T21:42:03.888Z,99541.94
2022-09-10T21:44:32.209Z,99540.50
2022-09-10T21:47:00.102Z,99541.41
2022-09-10T21:49:27.419Z,99535.72
2022-09-10T21:51:54.946Z,99545.94
2022-09-10T21:54:23.071Z,99541.44
2022-09-10T21:56:51.009Z,99544.94
2022-09-10T21:59:18.683Z,99545.28
2022-09-10T22:01:46.933Z,99551.50
2022-09-10T22:04:19.941Z,99549.63
2022-09-10T22:06:49.019Z,99555.69
2022-09-10T22:09:16.885Z,99553.97
2022-09-10T22:11:46.885Z,99552.00
2022-09-10T22:14:16.473Z,99560.47
2022-09-10T22:16:45.489Z,99565.25
2022-09-10T22:19:15.253Z,99570.44
2022-09-10T22:21:42.682Z,99572.56
2022-09-10T22:24:11.639Z,99573.78
2022-09-10T22:26:42.433Z,99573.19
2022-09-10T22:29:10.865Z,99575.13
2022-09-10T22:31:38.495Z,99578.38
2022-09-10T22:34:13.553Z,99584.22
2022-09-10T22:36:42.869Z,99585.12
2022-09-10T22:39:15.837Z,99581.13
2022-09-10T22:41:44.303Z,99574.28
2022-09-10T22:44:11.678Z,99583.34
2022-09-10T22:46:40.045Z,99592.72
2022-09-10T22:49:07.929Z,99595.91
2022-09-10T22:51:37.426Z,99593.88
2022-09-10T22:54:05.310Z,99586.97
2022-09-10T22:56:33.411Z,99592.47
2022-09-10T22:59:00.740Z,99592.56
2022-09-10T23:01:31.044Z,99595.59
2022-09-10T23:04:00.668Z,99591.72
2022-09-10T23:06:31.030Z,99593.50
2022-09-10T23:09:05.277Z,99588.84
2022-09-10T23:11:33.097Z,99589.22
2022-09-10T23:14:03.434Z,99583.63
2022-09-10T23:16:35.773Z,99586.31
2022-09-10T23:19:06.286Z,99580.31
2022-09-10T23:21:35.193Z,99573.38
2022-09-10T23:24:06.697Z,99583.72
2022-09-10T23:26:34.037Z,99574.91
2022-09-10T23:29:04.278Z,99576.16
2022-09-10T23:31:33.641Z,99583.72
2022-09-10T23:34:04.017Z,99581.09
2022-09-10T23:36:33.825Z,99583.03
2022-09-10T23:39:04.573Z,99584.75
2022-09-10T23:41:33.125Z,99581.72
2022-09-10T23:44:00.592Z,99581.72
2022-09-10T23:46:27.944Z,99583.97
2022-09-10T23:48:55.545Z,99589.03
2022-09-10T23:51:23.053Z,99589.75
2022-09-10T23:53:50.425Z,99587.38
2022-09-10T23:56:19.850Z,99587.97
2022-09-10T23:58:48.564Z,99592.81
